sensor_id;sensor_type;location;lat;lon;timestamp;temperature;humidity
55219;DHT22;65463;43.864;20.136;2022-12-07T00:01:19;205.20;2252.80
55219;DHT22;65463;43.864;20.136;2022-12-07T00:03:46;204.80;2252.80
55219;DHT22;65463;43.864;20.136;2022-12-07T00:06:14;205.10;2252.80
55219;DHT22;65463;43.864;20.136;2022-12-07T00:08:40;205.30;2252.80
55219;DHT22;65463;43.864;20.136;2022-12-07T00:11:11;205.40;2252.80
55219;DHT22;65463;43.864;20.136;2022-12-07T00:13:38;205.40;2252.80
55219;DHT22;65463;43.864;20.136;2022-12-07T00:16:29;204.90;2252.80
55219;DHT22;65463;43.864;20.136;2022-12-07T00:18:55;180.00;2252.80
55219;DHT22;65463;43.864;20.136;2022-12-07T00:21:26;180.00;2252.80
55219;DHT22;65463;43.864;20.136;2022-12-07T00:23:53;204.90;2252.80
55219;DHT22;65463;43.864;20.136;2022-12-07T00:26:39;205.00;2252.80
55219;DHT22;65463;43.864;20.136;2022-12-07T00:29:17;205.20;2252.80
55219;DHT22;65463;43.864;20.136;2022-12-07T00:31:43;204.80;2252.80
55219;DHT22;65463;43.864;20.136;2022-12-07T00:34:19;180.10;2252.80
55219;DHT22;65463;43.864;20.136;2022-12-07T00:36:45;205.00;2252.80
55219;DHT22;65463;43.864;20.136;2022-12-07T00:39:11;205.20;2252.80
55219;DHT22;65463;43.864;20.136;2022-12-07T00:41:36;205.20;2252.80
55219;DHT22;65463;43.864;20.136;2022-12-07T00:44:02;205.30;2252.80
55219;DHT22;65463;43.864;20.136;2022-12-07T00:46:28;205.30;2252.80
55219;DHT22;65463;43.864;20.136;2022-12-07T00:48:54;205.00;2252.80
55219;DHT22;65463;43.864;20.136;2022-12-07T00:51:23;180.10;2252.80
55219;DHT22;65463;43.864;20.136;2022-12-07T00:53:50;180.00;2252.80
55219;DHT22;65463;43.864;20.136;2022-12-07T00:56:23;179.90;2252.80
55219;DHT22;65463;43.864;20.136;2022-12-07T00:58:55;179.90;2252.80
55219;DHT22;65463;43.864;20.136;2022-12-07T01:01:22;179.90;2252.80
55219;DHT22;65463;43.864;20.136;2022-12-07T01:03:48;179.80;2252.80
55219;DHT22;65463;43.864;20.136;2022-12-07T01:06:16;204.80;2252.80
55219;DHT22;65463;43.864;20.136;2022-12-07T01:08:42;205.00;2252.80
55219;DHT22;65463;43.864;20.136;2022-12-07T01:11:13;205.20;2252.80
55219;DHT22;65463;43.864;20.136;2022-12-07T01:13:39;205.30;2252.80
55219;DHT22;65463;43.864;20.136;2022-12-07T01:16:06;205.40;2252.80
55219;DHT22;65463;43.864;20.136;2022-12-07T01:18:35;204.80;2252.80
55219;DHT22;65463;43.864;20.136;2022-12-07T01:23:29;179.80;2252.80
55219;DHT22;65463;43.864;20.136;2022-12-07T01:25:59;179.70;2252.80
55219;DHT22;65463;43.864;20.136;2022-12-07T01:28:26;179.60;2252.80
55219;DHT22;65463;43.864;20.136;2022-12-07T01:31:10;179.70;2252.80
55219;DHT22;65463;43.864;20.136;2022-12-07T01:33:45;179.70;2252.80
55219;DHT22;65463;43.864;20.136;2022-12-07T01:36:15;180.10;2252.80
55219;DHT22;65463;43.864;20.136;2022-12-07T01:38:42;179.90;2252.80
55219;DHT22;65463;43.864;20.136;2022-12-07T01:41:08;179.80;2252.80
55219;DHT22;65463;43.864;20.136;2022-12-07T01:43:35;179.80;2252.80
55219;DHT22;65463;43.864;20.136;2022-12-07T01:46:02;180.00;2252.80
55219;DHT22;65463;43.864;20.136;2022-12-07T01:48:40;204.90;2252.80
55219;DHT22;65463;43.864;20.136;2022-12-07T01:51:12;204.90;2252.80
55219;DHT22;65463;43.864;20.136;2022-12-07T01:53:43;204.80;2252.80
55219;DHT22;65463;43.864;20.136;2022-12-07T01:56:13;180.10;2252.80
55219;DHT22;65463;43.864;20.136;2022-12-07T01:58:40;205.00;2252.80
55219;DHT22;65463;43.864;20.136;2022-12-07T02:01:06;180.00;2252.80
55219;DHT22;65463;43.864;20.136;2022-12-07T02:03:36;179.80;2252.80
55219;DHT22;65463;43.864;20.136;2022-12-07T02:06:04;179.80;2252.80
55219;DHT22;65463;43.864;20.136;2022-12-07T02:08:31;179.70;2252.80
55219;DHT22;65463;43.864;20.136;2022-12-07T02:10:57;179.60;2252.80
55219;DHT22;65463;43.864;20.136;2022-12-07T02:13:26;179.50;2252.80
55219;DHT22;65463;43.864;20.136;2022-12-07T02:17:15;179.50;2252.80
55219;DHT22;65463;43.864;20.136;2022-12-07T02:21:57;179.90;2252.80
55219;DHT22;65463;43.864;20.136;2022-12-07T02:30:12;180.00;2252.80
55219;DHT22;65463;43.864;20.136;2022-12-07T02:33:09;204.80;2252.80
55219;DHT22;65463;43.864;20.136;2022-12-07T02:41:40;204.90;2252.80
55219;DHT22;65463;43.864;20.136;2022-12-07T02:44:12;205.10;2252.80
55219;DHT22;65463;43.864;20.136;2022-12-07T02:47:03;205.00;2252.80
55219;DHT22;65463;43.864;20.136;2022-12-07T02:49:31;180.00;2252.80
55219;DHT22;65463;43.864;20.136;2022-12-07T02:51:57;204.90;2252.80
55219;DHT22;65463;43.864;20.136;2022-12-07T02:54:23;205.10;2252.80
55219;DHT22;65463;43.864;20.136;2022-12-07T03:00:00;205.30;2252.80
55219;DHT22;65463;43.864;20.136;2022-12-07T03:11:19;180.10;2252.80
55219;DHT22;65463;43.864;20.136;2022-12-07T03:18:45;204.80;2252.80
55219;DHT22;65463;43.864;20.136;2022-12-07T03:21:17;180.00;2252.80
55219;DHT22;65463;43.864;20.136;2022-12-07T03:23:48;179.90;2252.80
55219;DHT22;65463;43.864;20.136;2022-12-07T03:26:17;179.70;2252.80
55219;DHT22;65463;43.864;20.136;2022-12-07T03:28:50;179.90;2252.80
55219;DHT22;65463;43.864;20.136;2022-12-07T03:31:32;179.80;2252.80
55219;DHT22;65463;43.864;20.136;2022-12-07T03:34:56;180.00;2252.80
55219;DHT22;65463;43.864;20.136;2022-12-07T03:39:41;205.00;2252.80
55219;DHT22;65463;43.864;20.136;2022-12-07T03:42:10;205.20;2252.80
55219;DHT22;65463;43.864;20.136;2022-12-07T03:44:36;205.20;2252.80
55219;DHT22;65463;43.864;20.136;2022-12-07T03:47:14;204.90;2252.80
55219;DHT22;65463;43.864;20.136;2022-12-07T03:50:06;180.00;2252.80
55219;DHT22;65463;43.864;20.136;2022-12-07T03:57:38;179.90;2252.80
55219;DHT22;65463;43.864;20.136;2022-12-07T04:00:06;180.00;2252.80
55219;DHT22;65463;43.864;20.136;2022-12-07T04:02:33;180.00;2252.80
55219;DHT22;65463;43.864;20.136;2022-12-07T04:04:59;179.90;2252.80
55219;DHT22;65463;43.864;20.136;2022-12-07T04:07:25;179.80;2252.80
55219;DHT22;65463;43.864;20.136;2022-12-07T04:09:51;180.10;2252.80
55219;DHT22;65463;43.864;20.136;2022-12-07T04:12:17;204.80;2252.80
55219;DHT22;65463;43.864;20.136;2022-12-07T04:14:43;204.90;2252.80
55219;DHT22;65463;43.864;20.136;2022-12-07T04:17:09;205.00;2252.80
55219;DHT22;65463;43.864;20.136;2022-12-07T04:19:34;205.10;2252.80
55219;DHT22;65463;43.864;20.136;2022-12-07T04:22:02;205.20;2252.80
55219;DHT22;65463;43.864;20.136;2022-12-07T04:24:29;205.20;2252.80
55219;DHT22;65463;43.864;20.136;2022-12-07T04:26:55;205.40;2252.80
55219;DHT22;65463;43.864;20.136;2022-12-07T04:29:24;205.40;2252.80
55219;DHT22;65463;43.864;20.136;2022-12-07T04:31:50;205.40;2252.80
55219;DHT22;65463;43.864;20.136;2022-12-07T04:34:17;205.30;2252.80
55219;DHT22;65463;43.864;20.136;2022-12-07T04:36:44;205.10;2252.80
55219;DHT22;65463;43.864;20.136;2022-12-07T04:39:25;205.00;2252.80
55219;DHT22;65463;43.864;20.136;2022-12-07T04:41:51;205.10;2252.80
55219;DHT22;65463;43.864;20.136;2022-12-07T04:44:17;205.20;2252.80
55219;DHT22;65463;43.864;20.136;2022-12-07T04:46:43;205.10;2252.80
55219;DHT22;65463;43.864;20.136;2022-12-07T04:49:10;205.20;2252.80
55219;DHT22;65463;43.864;20.136;2022-12-07T04:51:36;205.30;2252.80
55219;DHT22;65463;43.864;20.136;2022-12-07T04:54:02;205.40;2252.80
55219;DHT22;65463;43.864;20.136;2022-12-07T04:56:29;205.30;2150.40
55219;DHT22;65463;43.864;20.136;2022-12-07T04:58:54;205.20;2252.80
55219;DHT22;65463;43.864;20.136;2022-12-07T05:01:21;205.10;2252.80
55219;DHT22;65463;43.864;20.136;2022-12-07T05:03:47;205.20;2252.80
55219;DHT22;65463;43.864;20.136;2022-12-07T05:06:13;205.10;2252.80
55219;DHT22;65463;43.864;20.136;2022-12-07T05:08:39;205.10;2252.80
55219;DHT22;65463;43.864;20.136;2022-12-07T05:11:06;205.20;2252.80
55219;DHT22;65463;43.864;20.136;2022-12-07T05:13:33;205.10;2252.80
55219;DHT22;65463;43.864;20.136;2022-12-07T05:15:59;205.30;2252.80
55219;DHT22;65463;43.864;20.136;2022-12-07T05:18:25;205.50;2252.80
55219;DHT22;65463;43.864;20.136;2022-12-07T05:20:51;205.50;2252.80
55219;DHT22;65463;43.864;20.136;2022-12-07T05:23:17;205.60;2252.80
55219;DHT22;65463;43.864;20.136;2022-12-07T05:25:44;205.60;2252.80
55219;DHT22;65463;43.864;20.136;2022-12-07T05:28:10;205.60;2252.80
55219;DHT22;65463;43.864;20.136;2022-12-07T05:30:36;205.60;2252.80
55219;DHT22;65463;43.864;20.136;2022-12-07T05:33:02;205.40;2252.80
55219;DHT22;65463;43.864;20.136;2022-12-07T05:35:29;205.50;2252.80
55219;DHT22;65463;43.864;20.136;2022-12-07T05:37:55;205.50;2252.80
55219;DHT22;65463;43.864;20.136;2022-12-07T05:40:22;205.40;2252.80
55219;DHT22;65463;43.864;20.136;2022-12-07T05:42:48;205.00;2252.80
55219;DHT22;65463;43.864;20.136;2022-12-07T05:45:14;205.20;2252.80
55219;DHT22;65463;43.864;20.136;2022-12-07T05:47:40;205.00;2252.80
55219;DHT22;65463;43.864;20.136;2022-12-07T05:50:06;204.80;2252.80
55219;DHT22;65463;43.864;20.136;2022-12-07T05:52:32;180.10;2252.80
55219;DHT22;65463;43.864;20.136;2022-12-07T05:54:58;205.00;2252.80
55219;DHT22;65463;43.864;20.136;2022-12-07T05:57:24;205.20;2252.80
55219;DHT22;65463;43.864;20.136;2022-12-07T05:59:50;205.40;2252.80
55219;DHT22;65463;43.864;20.136;2022-12-07T06:02:16;205.50;2252.80
55219;DHT22;65463;43.864;20.136;2022-12-07T06:04:45;205.60;2252.80
55219;DHT22;65463;43.864;20.136;2022-12-07T06:07:13;205.60;2252.80
55219;DHT22;65463;43.864;20.136;2022-12-07T06:09:39;205.70;2252.80
55219;DHT22;65463;43.864;20.136;2022-12-07T06:12:05;205.50;2252.80
55219;DHT22;65463;43.864;20.136;2022-12-07T06:14:50;205.10;2252.80
55219;DHT22;65463;43.864;20.136;2022-12-07T06:17:16;205.30;2252.80
55219;DHT22;65463;43.864;20.136;2022-12-07T06:19:42;205.40;2252.80
55219;DHT22;65463;43.864;20.136;2022-12-07T06:22:09;205.50;2252.80
55219;DHT22;65463;43.864;20.136;2022-12-07T06:24:37;205.40;2252.80
55219;DHT22;65463;43.864;20.136;2022-12-07T06:27:04;205.20;2252.80
55219;DHT22;65463;43.864;20.136;2022-12-07T06:29:30;205.30;2252.80
55219;DHT22;65463;43.864;20.136;2022-12-07T06:31:56;205.20;2252.80
55219;DHT22;65463;43.864;20.136;2022-12-07T06:34:23;204.90;2252.80
55219;DHT22;65463;43.864;20.136;2022-12-07T06:36:50;180.10;2252.80
55219;DHT22;65463;43.864;20.136;2022-12-07T06:39:19;204.80;2252.80
55219;DHT22;65463;43.864;20.136;2022-12-07T06:41:46;205.00;2252.80
55219;DHT22;65463;43.864;20.136;2022-12-07T06:44:12;205.00;2252.80
55219;DHT22;65463;43.864;20.136;2022-12-07T06:46:38;205.00;2252.80
55219;DHT22;65463;43.864;20.136;2022-12-07T06:49:05;205.00;2252.80
55219;DHT22;65463;43.864;20.136;2022-12-07T06:51:32;204.80;2252.80
55219;DHT22;65463;43.864;20.136;2022-12-07T06:53:58;204.90;2252.80
55219;DHT22;65463;43.864;20.136;2022-12-07T06:56:24;204.80;2252.80
55219;DHT22;65463;43.864;20.136;2022-12-07T06:58:50;180.10;2252.80
55219;DHT22;65463;43.864;20.136;2022-12-07T07:01:18;204.80;2252.80
55219;DHT22;65463;43.864;20.136;2022-12-07T07:03:45;180.10;2252.80
55219;DHT22;65463;43.864;20.136;2022-12-07T07:06:12;180.00;2252.80
55219;DHT22;65463;43.864;20.136;2022-12-07T07:08:39;180.10;2252.80
55219;DHT22;65463;43.864;20.136;2022-12-07T07:11:06;204.80;2252.80
55219;DHT22;65463;43.864;20.136;2022-12-07T07:13:32;205.20;2252.80
55219;DHT22;65463;43.864;20.136;2022-12-07T07:15:58;205.50;2252.80
55219;DHT22;65463;43.864;20.136;2022-12-07T07:18:25;230.40;2252.80
55219;DHT22;65463;43.864;20.136;2022-12-07T07:20:51;230.40;2252.80
55219;DHT22;65463;43.864;20.136;2022-12-07T07:23:18;230.50;2252.80
55219;DHT22;65463;43.864;20.136;2022-12-07T07:25:44;230.50;2252.80
55219;DHT22;65463;43.864;20.136;2022-12-07T07:28:10;230.60;2252.80
55219;DHT22;65463;43.864;20.136;2022-12-07T07:30:36;230.70;2252.80
55219;DHT22;65463;43.864;20.136;2022-12-07T07:33:03;230.50;2176.00
55219;DHT22;65463;43.864;20.136;2022-12-07T07:35:32;231.00;2252.80
55219;DHT22;65463;43.864;20.136;2022-12-07T07:37:58;256.60;2252.80
55219;DHT22;65463;43.864;20.136;2022-12-07T07:40:24;256.10;2252.80
55219;DHT22;65463;43.864;20.136;2022-12-07T07:42:51;230.90;2252.80
55219;DHT22;65463;43.864;20.136;2022-12-07T07:45:18;230.70;2252.80
55219;DHT22;65463;43.864;20.136;2022-12-07T07:47:44;205.70;2252.80
55219;DHT22;65463;43.864;20.136;2022-12-07T07:50:10;205.50;2252.80
55219;DHT22;65463;43.864;20.136;2022-12-07T07:52:37;205.60;2252.80
55219;DHT22;65463;43.864;20.136;2022-12-07T07:55:03;205.40;2252.80
55219;DHT22;65463;43.864;20.136;2022-12-07T07:57:29;205.40;2252.80
55219;DHT22;65463;43.864;20.136;2022-12-07T07:59:54;205.20;2252.80
55219;DHT22;65463;43.864;20.136;2022-12-07T08:02:21;205.20;2252.80
55219;DHT22;65463;43.864;20.136;2022-12-07T08:04:47;205.30;2252.80
55219;DHT22;65463;43.864;20.136;2022-12-07T08:07:14;205.60;2252.80
55219;DHT22;65463;43.864;20.136;2022-12-07T08:09:40;205.70;2252.80
55219;DHT22;65463;43.864;20.136;2022-12-07T08:12:07;230.50;2252.80
55219;DHT22;65463;43.864;20.136;2022-12-07T08:14:33;230.70;2252.80
55219;DHT22;65463;43.864;20.136;2022-12-07T08:16:59;230.90;2252.80
55219;DHT22;65463;43.864;20.136;2022-12-07T08:19:25;230.70;2252.80
55219;DHT22;65463;43.864;20.136;2022-12-07T08:21:52;230.50;2252.80
55219;DHT22;65463;43.864;20.136;2022-12-07T08:24:18;205.50;2252.80
55219;DHT22;65463;43.864;20.136;2022-12-07T08:26:43;205.40;2252.80
55219;DHT22;65463;43.864;20.136;2022-12-07T08:29:09;205.20;2252.80
55219;DHT22;65463;43.864;20.136;2022-12-07T08:31:36;205.50;2252.80
55219;DHT22;65463;43.864;20.136;2022-12-07T08:34:01;205.70;2252.80
55219;DHT22;65463;43.864;20.136;2022-12-07T08:36:28;230.40;2252.80
55219;DHT22;65463;43.864;20.136;2022-12-07T08:38:54;205.60;2252.80
55219;DHT22;65463;43.864;20.136;2022-12-07T08:41:20;205.50;2252.80
55219;DHT22;65463;43.864;20.136;2022-12-07T08:43:45;205.40;2252.80
55219;DHT22;65463;43.864;20.136;2022-12-07T08:46:37;230.50;2252.80
55219;DHT22;65463;43.864;20.136;2022-12-07T08:51:35;231.20;2252.80
55219;DHT22;65463;43.864;20.136;2022-12-07T08:54:04;230.90;2252.80
55219;DHT22;65463;43.864;20.136;2022-12-07T08:56:30;231.00;2252.80
55219;DHT22;65463;43.864;20.136;2022-12-07T08:58:57;256.10;2252.80
55219;DHT22;65463;43.864;20.136;2022-12-07T09:01:23;231.20;2252.80
55219;DHT22;65463;43.864;20.136;2022-12-07T09:03:49;231.00;2252.80
55219;DHT22;65463;43.864;20.136;2022-12-07T09:06:15;231.30;2150.40
55219;DHT22;65463;43.864;20.136;2022-12-07T09:08:45;256.10;2252.80
55219;DHT22;65463;43.864;20.136;2022-12-07T09:11:11;231.00;2252.80
55219;DHT22;65463;43.864;20.136;2022-12-07T09:13:37;231.00;2252.80
55219;DHT22;65463;43.864;20.136;2022-12-07T09:16:03;230.90;2252.80
55219;DHT22;65463;43.864;20.136;2022-12-07T09:18:29;230.80;2252.80
55219;DHT22;65463;43.864;20.136;2022-12-07T09:20:56;256.00;2252.80
55219;DHT22;65463;43.864;20.136;2022-12-07T09:23:22;231.10;2252.80
55219;DHT22;65463;43.864;20.136;2022-12-07T09:25:48;231.30;2252.80
55219;DHT22;65463;43.864;20.136;2022-12-07T09:28:14;256.60;2252.80
55219;DHT22;65463;43.864;20.136;2022-12-07T09:30:48;256.80;2201.60
55219;DHT22;65463;43.864;20.136;2022-12-07T09:33:14;281.60;2278.40
55219;DHT22;65463;43.864;20.136;2022-12-07T09:35:49;281.90;2278.40
55219;DHT22;65463;43.864;20.136;2022-12-07T09:38:15;281.60;2278.40
55219;DHT22;65463;43.864;20.136;2022-12-07T09:40:41;256.70;2252.80
55219;DHT22;65463;43.864;20.136;2022-12-07T09:43:21;256.90;2252.80
55219;DHT22;65463;43.864;20.136;2022-12-07T09:45:51;281.80;2278.40
55219;DHT22;65463;43.864;20.136;2022-12-07T09:48:19;282.30;2278.40
55219;DHT22;65463;43.864;20.136;2022-12-07T09:50:48;307.20;2304.00
55219;DHT22;65463;43.864;20.136;2022-12-07T09:53:28;307.20;2304.00
55219;DHT22;65463;43.864;20.136;2022-12-07T09:55:55;307.50;2304.00
55219;DHT22;65463;43.864;20.136;2022-12-07T09:58:24;308.00;2304.00
55219;DHT22;65463;43.864;20.136;2022-12-07T10:00:57;307.50;2304.00
55219;DHT22;65463;43.864;20.136;2022-12-07T10:03:28;307.60;2304.00
55219;DHT22;65463;43.864;20.136;2022-12-07T10:05:55;308.00;2304.00
55219;DHT22;65463;43.864;20.136;2022-12-07T10:08:22;308.00;2304.00
55219;DHT22;65463;43.864;20.136;2022-12-07T10:10:53;308.00;2304.00
55219;DHT22;65463;43.864;20.136;2022-12-07T10:13:33;332.80;2329.60
55219;DHT22;65463;43.864;20.136;2022-12-07T10:15:59;308.00;2304.00
55219;DHT22;65463;43.864;20.136;2022-12-07T10:18:34;307.80;2304.00
55219;DHT22;65463;43.864;20.136;2022-12-07T10:21:05;307.90;2304.00
55219;DHT22;65463;43.864;20.136;2022-12-07T10:23:35;308.10;2304.00
55219;DHT22;65463;43.864;20.136;2022-12-07T10:28:50;307.30;2304.00
55219;DHT22;65463;43.864;20.136;2022-12-07T10:31:21;282.50;2278.40
55219;DHT22;65463;43.864;20.136;2022-12-07T10:33:53;307.30;2304.00
55219;DHT22;65463;43.864;20.136;2022-12-07T10:36:46;282.20;2278.40
55219;DHT22;65463;43.864;20.136;2022-12-07T10:39:20;281.70;2278.40
55219;DHT22;65463;43.864;20.136;2022-12-07T10:42:00;281.60;2278.40
55219;DHT22;65463;43.864;20.136;2022-12-07T10:44:31;281.70;2278.40
55219;DHT22;65463;43.864;20.136;2022-12-07T10:47:33;256.90;2252.80
55219;DHT22;65463;43.864;20.136;2022-12-07T10:53:28;256.90;2252.80
55219;DHT22;65463;43.864;20.136;2022-12-07T10:55:55;256.80;2252.80
55219;DHT22;65463;43.864;20.136;2022-12-07T10:58:37;256.80;2252.80
55219;DHT22;65463;43.864;20.136;2022-12-07T11:07:27;281.90;2278.40
55219;DHT22;65463;43.864;20.136;2022-12-07T11:09:54;281.90;2278.40
55219;DHT22;65463;43.864;20.136;2022-12-07T11:12:38;281.70;2278.40
55219;DHT22;65463;43.864;20.136;2022-12-07T11:29:10;256.80;2252.80
55219;DHT22;65463;43.864;20.136;2022-12-07T11:37:18;256.60;2252.80
55219;DHT22;65463;43.864;20.136;2022-12-07T11:42:26;256.60;2252.80
55219;DHT22;65463;43.864;20.136;2022-12-07T11:45:17;256.40;2252.80
55219;DHT22;65463;43.864;20.136;2022-12-07T11:50:21;256.60;2252.80
55219;DHT22;65463;43.864;20.136;2022-12-07T12:01:01;231.30;2252.80
55219;DHT22;65463;43.864;20.136;2022-12-07T12:06:02;256.30;2252.80
55219;DHT22;65463;43.864;20.136;2022-12-07T12:09:04;256.20;2252.80
55219;DHT22;65463;43.864;20.136;2022-12-07T12:11:45;256.20;2252.80
55219;DHT22;65463;43.864;20.136;2022-12-07T12:14:20;256.40;2252.80
55219;DHT22;65463;43.864;20.136;2022-12-07T12:19:25;256.50;1894.40
55219;DHT22;65463;43.864;20.136;2022-12-07T12:22:19;256.40;2252.80
55219;DHT22;65463;43.864;20.136;2022-12-07T12:24:53;282.30;2278.40
55219;DHT22;65463;43.864;20.136;2022-12-07T12:27:35;281.90;2278.40
55219;DHT22;65463;43.864;20.136;2022-12-07T12:30:29;282.40;2278.40
55219;DHT22;65463;43.864;20.136;2022-12-07T12:32:49;307.40;2304.00
55219;DHT22;65463;43.864;20.136;2022-12-07T12:35:33;307.90;2304.00
55219;DHT22;65463;43.864;20.136;2022-12-07T12:38:27;282.20;2278.40
55219;DHT22;65463;43.864;20.136;2022-12-07T12:40:56;281.60;2278.40
55219;DHT22;65463;43.864;20.136;2022-12-07T12:43:43;256.70;2252.80
55219;DHT22;65463;43.864;20.136;2022-12-07T12:56:51;256.10;2252.80
55219;DHT22;65463;43.864;20.136;2022-12-07T12:59:28;256.20;2252.80
55219;DHT22;65463;43.864;20.136;2022-12-07T13:15:46;256.50;2252.80
55219;DHT22;65463;43.864;20.136;2022-12-07T13:26:14;256.80;2252.80
55219;DHT22;65463;43.864;20.136;2022-12-07T13:33:46;256.20;2252.80
55219;DHT22;65463;43.864;20.136;2022-12-07T13:36:26;231.30;2252.80
55219;DHT22;65463;43.864;20.136;2022-12-07T13:38:55;231.30;2252.80
55219;DHT22;65463;43.864;20.136;2022-12-07T13:41:24;231.10;2252.80
55219;DHT22;65463;43.864;20.136;2022-12-07T13:46:26;281.60;2278.40
55219;DHT22;65463;43.864;20.136;2022-12-07T13:48:52;256.50;2252.80
55219;DHT22;65463;43.864;20.136;2022-12-07T13:51:28;256.50;2252.80
55219;DHT22;65463;43.864;20.136;2022-12-07T13:53:57;256.30;2252.80
55219;DHT22;65463;43.864;20.136;2022-12-07T13:56:33;256.00;2124.80
55219;DHT22;65463;43.864;20.136;2022-12-07T13:59:00;256.20;2252.80
55219;DHT22;65463;43.864;20.136;2022-12-07T14:01:26;256.10;2252.80
55219;DHT22;65463;43.864;20.136;2022-12-07T14:03:53;231.30;2252.80
55219;DHT22;65463;43.864;20.136;2022-12-07T14:06:26;231.10;2252.80
55219;DHT22;65463;43.864;20.136;2022-12-07T14:09:19;231.10;2252.80
55219;DHT22;65463;43.864;20.136;2022-12-07T14:11:48;231.20;2252.80
55219;DHT22;65463;43.864;20.136;2022-12-07T14:14:21;231.10;2252.80
55219;DHT22;65463;43.864;20.136;2022-12-07T14:17:02;256.10;2252.80
55219;DHT22;65463;43.864;20.136;2022-12-07T14:22:36;256.20;2048.00
55219;DHT22;65463;43.864;20.136;2022-12-07T14:25:14;256.40;2252.80
55219;DHT22;65463;43.864;20.136;2022-12-07T14:27:57;256.10;2252.80
55219;DHT22;65463;43.864;20.136;2022-12-07T14:30:29;256.10;2252.80
55219;DHT22;65463;43.864;20.136;2022-12-07T14:33:00;256.00;2252.80
55219;DHT22;65463;43.864;20.136;2022-12-07T14:35:28;256.20;2252.80
55219;DHT22;65463;43.864;20.136;2022-12-07T14:37:54;256.30;2252.80
55219;DHT22;65463;43.864;20.136;2022-12-07T14:40:25;256.40;2252.80
55219;DHT22;65463;43.864;20.136;2022-12-07T14:43:04;256.40;2252.80
55219;DHT22;65463;43.864;20.136;2022-12-07T14:45:32;256.40;2252.80
55219;DHT22;65463;43.864;20.136;2022-12-07T14:52:55;231.10;2252.80
55219;DHT22;65463;43.864;20.136;2022-12-07T14:55:29;230.90;2252.80
55219;DHT22;65463;43.864;20.136;2022-12-07T14:57:56;230.90;2252.80
55219;DHT22;65463;43.864;20.136;2022-12-07T15:00:24;231.00;2073.60
55219;DHT22;65463;43.864;20.136;2022-12-07T15:02:51;230.80;2124.80
55219;DHT22;65463;43.864;20.136;2022-12-07T15:05:18;230.90;2252.80
55219;DHT22;65463;43.864;20.136;2022-12-07T15:07:45;230.80;2252.80
55219;DHT22;65463;43.864;20.136;2022-12-07T15:10:24;256.00;2252.80
55219;DHT22;65463;43.864;20.136;2022-12-07T15:18:07;256.20;2252.80
55219;DHT22;65463;43.864;20.136;2022-12-07T15:20:33;231.20;2252.80
55219;DHT22;65463;43.864;20.136;2022-12-07T15:25:25;231.30;2252.80
55219;DHT22;65463;43.864;20.136;2022-12-07T15:27:51;231.10;2252.80
55219;DHT22;65463;43.864;20.136;2022-12-07T15:30:17;230.70;2252.80
55219;DHT22;65463;43.864;20.136;2022-12-07T15:32:42;230.40;2252.80
55219;DHT22;65463;43.864;20.136;2022-12-07T15:35:08;205.40;2252.80
55219;DHT22;65463;43.864;20.136;2022-12-07T15:37:34;205.60;2252.80
55219;DHT22;65463;43.864;20.136;2022-12-07T15:40:00;205.60;2252.80
55219;DHT22;65463;43.864;20.136;2022-12-07T15:42:26;205.30;2252.80
55219;DHT22;65463;43.864;20.136;2022-12-07T15:44:51;205.40;2252.80
55219;DHT22;65463;43.864;20.136;2022-12-07T15:47:33;205.50;2252.80
55219;DHT22;65463;43.864;20.136;2022-12-07T15:50:02;205.60;2252.80
55219;DHT22;65463;43.864;20.136;2022-12-07T15:52:29;205.60;2252.80
55219;DHT22;65463;43.864;20.136;2022-12-07T15:54:55;205.60;2252.80
55219;DHT22;65463;43.864;20.136;2022-12-07T15:57:22;205.70;2252.80
55219;DHT22;65463;43.864;20.136;2022-12-07T15:59:47;205.60;2252.80
55219;DHT22;65463;43.864;20.136;2022-12-07T16:02:13;230.40;2252.80
55219;DHT22;65463;43.864;20.136;2022-12-07T16:04:39;230.40;2252.80
55219;DHT22;65463;43.864;20.136;2022-12-07T16:07:05;230.40;1971.20
55219;DHT22;65463;43.864;20.136;2022-12-07T16:09:31;230.40;2252.80
55219;DHT22;65463;43.864;20.136;2022-12-07T16:11:57;205.60;2252.80
55219;DHT22;65463;43.864;20.136;2022-12-07T16:14:23;205.40;2252.80
55219;DHT22;65463;43.864;20.136;2022-12-07T16:16:49;205.20;2252.80
55219;DHT22;65463;43.864;20.136;2022-12-07T16:19:15;205.70;2252.80
55219;DHT22;65463;43.864;20.136;2022-12-07T16:21:41;205.60;2252.80
55219;DHT22;65463;43.864;20.136;2022-12-07T16:24:08;205.60;2252.80
55219;DHT22;65463;43.864;20.136;2022-12-07T16:26:35;205.50;2252.80
55219;DHT22;65463;43.864;20.136;2022-12-07T16:29:01;205.20;2252.80
55219;DHT22;65463;43.864;20.136;2022-12-07T16:31:28;205.20;2252.80
55219;DHT22;65463;43.864;20.136;2022-12-07T16:33:56;205.10;2252.80
55219;DHT22;65463;43.864;20.136;2022-12-07T16:36:22;230.40;2252.80
55219;DHT22;65463;43.864;20.136;2022-12-07T16:38:50;205.40;2252.80
55219;DHT22;65463;43.864;20.136;2022-12-07T16:41:16;205.70;2252.80
55219;DHT22;65463;43.864;20.136;2022-12-07T16:43:45;205.30;2252.80
55219;DHT22;65463;43.864;20.136;2022-12-07T16:46:11;205.10;2252.80
55219;DHT22;65463;43.864;20.136;2022-12-07T16:48:38;204.90;2252.80
55219;DHT22;65463;43.864;20.136;2022-12-07T16:51:06;205.00;2252.80
55219;DHT22;65463;43.864;20.136;2022-12-07T16:53:34;205.10;2252.80
55219;DHT22;65463;43.864;20.136;2022-12-07T16:56:00;205.30;2252.80
55219;DHT22;65463;43.864;20.136;2022-12-07T16:58:27;205.10;1920.00
55219;DHT22;65463;43.864;20.136;2022-12-07T17:00:53;205.10;2252.80
55219;DHT22;65463;43.864;20.136;2022-12-07T17:03:18;205.30;2252.80
55219;DHT22;65463;43.864;20.136;2022-12-07T17:05:45;205.50;2252.80
55219;DHT22;65463;43.864;20.136;2022-12-07T17:08:12;205.50;2252.80
55219;DHT22;65463;43.864;20.136;2022-12-07T17:10:41;231.20;2073.60
55219;DHT22;65463;43.864;20.136;2022-12-07T17:13:08;231.10;2252.80
55219;DHT22;65463;43.864;20.136;2022-12-07T17:16:03;230.60;2252.80
55219;DHT22;65463;43.864;20.136;2022-12-07T17:18:33;205.40;2252.80
55219;DHT22;65463;43.864;20.136;2022-12-07T17:21:07;205.10;2252.80